Time;durP1;ratioP1;P1;durP2;ratioP2;P2;SDS_P1;SDS_P2;PMS_P1;PMS_P2;Temp;Humidity;BMP_temperature;BMP_pressure;BME280_temperature;BME280_humidity;BME280_pressure;Samples;Min_cycle;Max_cycle;Signal;HPM_P1;HPM_P2
2021/10/31 12:59:56;;;;;;;3.17;1.00;;;17.70;99.90;;;;;;5102230;27;20408;-63
2021/10/31 13:02:25;;;;;;;2.55;1.13;;;17.70;99.90;;;;;;5105049;28;20046;-66
2021/10/31 13:05:06;;;;;;;2.60;0.90;;;17.70;99.90;;;;;;5106342;28;20019;-64
2021/10/31 13:07:45;;;;;;;1.85;0.80;;;17.70;99.90;;;;;;5098374;28;20452;-67
2021/10/31 13:10:11;;;;;;;2.90;1.13;;;17.70;99.90;;;;;;5103849;28;20037;-67
2021/10/31 13:12:36;;;;;;;3.17;0.80;;;17.70;99.90;;;;;;5106611;28;20026;-66
2021/10/31 13:15:14;;;;;;;2.67;0.88;;;17.70;99.90;;;;;;5093716;28;20106;-65
2021/10/31 13:17:43;;;;;;;2.10;0.63;;;17.80;99.90;;;;;;5098873;28;20028;-68
2021/10/31 13:20:10;;;;;;;1.67;0.70;;;17.80;99.90;;;;;;5108157;28;20046;-66
2021/10/31 13:22:37;;;;;;;3.63;0.80;;;17.80;99.90;;;;;;5107588;28;20490;-67
2021/10/31 13:25:03;;;;;;;6.43;0.90;;;17.80;99.90;;;;;;5106537;28;20024;-66
2021/10/31 13:27:29;;;;;;;2.63;0.90;;;17.90;99.90;;;;;;5107954;28;20056;-66
2021/10/31 13:29:55;;;;;;;2.63;0.70;;;17.90;99.90;;;;;;5108356;28;20050;-64
2021/10/31 13:32:26;;;;;;;1.75;0.68;;;17.90;99.90;;;;;;5108288;28;20016;-67
2021/10/31 13:34:54;;;;;;;1.77;0.68;;;17.90;99.90;;;;;;5092080;28;20022;-66
2021/10/31 13:37:25;;;;;;;1.77;0.60;;;17.90;99.90;;;;;;5107579;28;20020;-66
2021/10/31 13:39:58;;;;;;;1.50;0.85;;;17.90;99.90;;;;;;5107943;28;20043;-66
2021/10/31 13:42:39;;;;;;;2.60;0.77;;;17.90;99.90;;;;;;5107722;28;20020;-66
2021/10/31 13:45:16;;;;;;;2.70;1.30;;;17.90;99.90;;;;;;5093671;28;20136;-66
2021/10/31 13:47:54;;;;;;;3.38;0.90;;;17.90;99.90;;;;;;5107252;28;20132;-67
2021/10/31 13:50:22;;;;;;;2.97;0.75;;;17.90;99.90;;;;;;5107925;28;20028;-66
2021/10/31 13:52:52;;;;;;;1.88;0.80;;;17.90;99.90;;;;;;5093965;28;20027;-67
2021/10/31 13:55:20;;;;;;;2.38;0.80;;;17.90;99.90;;;;;;5107512;28;20042;-66
2021/10/31 13:57:48;;;;;;;1.98;0.70;;;17.90;99.90;;;;;;5095907;28;20044;-66
2021/10/31 14:00:27;;;;;;;3.22;0.80;;;17.90;99.90;;;;;;5103264;28;20031;-66
2021/10/31 14:02:54;;;;;;;2.17;1.00;;;18.00;99.90;;;;;;5094932;28;20073;-65
2021/10/31 14:05:30;;;;;;;2.05;0.88;;;18.00;99.90;;;;;;5107147;28;20031;-65
2021/10/31 14:08:05;;;;;;;2.17;0.90;;;18.00;99.90;;;;;;5107352;28;20499;-65
2021/10/31 14:10:37;;;;;;;2.58;0.80;;;18.00;99.90;;;;;;5097084;28;20434;-68
2021/10/31 14:13:21;;;;;;;2.25;0.80;;;18.00;99.90;;;;;;5093602;28;20024;-67
2021/10/31 14:15:49;;;;;;;2.38;0.73;;;18.00;99.90;;;;;;5082174;28;20128;-66
2021/10/31 14:18:17;;;;;;;1.60;0.98;;;18.00;99.90;;;;;;5089146;28;20098;-67
2021/10/31 14:20:45;;;;;;;1.25;0.63;;;18.00;99.90;;;;;;5093839;28;20038;-66
2021/10/31 14:23:28;;;;;;;2.65;0.75;;;18.00;99.90;;;;;;5093881;28;20013;-67
2021/10/31 14:26:02;;;;;;;3.38;0.70;;;18.00;99.90;;;;;;5093699;28;20051;-67
2021/10/31 14:28:31;;;;;;;0.98;0.70;;;18.00;99.90;;;;;;5076694;28;20025;-67
2021/10/31 14:31:01;;;;;;;3.33;0.90;;;18.00;99.90;;;;;;5089219;28;20028;-67
2021/10/31 14:33:29;;;;;;;3.20;0.90;;;18.00;99.90;;;;;;5081938;28;20100;-67
2021/10/31 14:36:16;;;;;;;1.70;0.70;;;18.00;99.90;;;;;;5080608;28;20066;-66
2021/10/31 14:38:54;;;;;;;3.17;0.70;;;18.00;99.90;;;;;;5092490;28;20036;-67
2021/10/31 14:41:22;;;;;;;1.90;0.70;;;18.00;99.90;;;;;;5085400;28;20013;-67
2021/10/31 14:44:21;;;;;;;7.22;1.10;;;18.00;99.90;;;;;;5084773;28;20082;-67
2021/10/31 14:46:55;;;;;;;1.25;0.85;;;18.00;99.90;;;;;;5067885;28;20395;-67
2021/10/31 14:49:24;;;;;;;2.38;0.70;;;18.00;99.90;;;;;;5085017;28;20086;-71
2021/10/31 14:52:05;;;;;;;1.02;0.57;;;18.00;99.90;;;;;;5085037;28;20020;-67
2021/10/31 14:54:33;;;;;;;1.38;0.70;;;18.00;99.90;;;;;;5091443;28;20123;-67
2021/10/31 14:57:06;;;;;;;1.88;0.60;;;18.00;99.90;;;;;;5077957;28;20019;-67
2021/10/31 14:59:39;;;;;;;2.10;0.60;;;18.00;99.90;;;;;;5083096;28;20067;-67
2021/10/31 15:02:06;;;;;;;1.58;0.82;;;18.00;99.90;;;;;;5086634;28;20027;-67
2021/10/31 15:04:32;;;;;;;1.80;0.50;;;18.00;99.90;;;;;;5092655;28;20107;-68
2021/10/31 15:06:57;;;;;;;1.60;0.70;;;18.00;99.90;;;;;;5088358;28;20142;-68
2021/10/31 15:09:25;;;;;;;1.65;0.70;;;18.00;99.90;;;;;;5091621;28;20024;-69
2021/10/31 15:11:52;;;;;;;1.35;0.70;;;18.00;99.90;;;;;;5080678;28;20039;-67
2021/10/31 15:14:18;;;;;;;1.67;1.00;;;18.00;99.90;;;;;;5088645;28;20028;-67
2021/10/31 15:16:44;;;;;;;3.25;0.80;;;18.00;99.90;;;;;;5076299;28;20414;-67
2021/10/31 15:19:10;;;;;;;2.25;0.93;;;18.00;99.90;;;;;;5086080;28;20025;-68
2021/10/31 15:21:39;;;;;;;1.58;0.70;;;18.10;99.90;;;;;;5081406;28;20060;-67
2021/10/31 15:24:10;;;;;;;1.27;0.70;;;18.00;99.90;;;;;;5092584;28;20028;-67
2021/10/31 15:26:38;;;;;;;1.75;0.70;;;18.10;99.90;;;;;;5091885;28;20605;-67
2021/10/31 15:29:04;;;;;;;1.23;0.60;;;18.00;99.90;;;;;;5086634;28;20119;-67
2021/10/31 15:31:29;;;;;;;2.38;0.77;;;18.00;99.90;;;;;;5081238;28;20108;-67
2021/10/31 15:33:55;;;;;;;1.63;0.85;;;18.10;99.90;;;;;;5080121;28;20464;-68
2021/10/31 15:36:21;;;;;;;4.95;0.80;;;18.00;99.90;;;;;;5088291;28;20031;-68
2021/10/31 15:38:46;;;;;;;5.03;0.77;;;18.00;99.90;;;;;;5085937;28;20040;-66
2021/10/31 15:41:14;;;;;;;2.72;0.90;;;18.00;99.90;;;;;;5092137;28;20032;-65
2021/10/31 15:43:42;;;;;;;2.50;0.80;;;18.10;99.90;;;;;;5089347;28;20081;-65
2021/10/31 15:46:08;;;;;;;6.70;1.38;;;18.10;99.90;;;;;;5092283;28;20020;-65
2021/10/31 15:48:35;;;;;;;6.97;1.05;;;18.10;99.90;;;;;;5090300;28;20036;-66
2021/10/31 15:51:01;;;;;;;3.72;0.90;;;18.00;99.90;;;;;;5077408;28;20012;-75
2021/10/31 15:53:28;;;;;;;2.17;0.90;;;18.00;99.90;;;;;;5093565;28;20376;-68
2021/10/31 15:55:55;;;;;;;1.17;0.60;;;18.00;99.90;;;;;;5091924;28;20472;-68
2021/10/31 15:58:25;;;;;;;2.50;0.77;;;18.00;99.90;;;;;;5075259;28;20398;-68
2021/10/31 16:00:51;;;;;;;1.63;0.70;;;18.00;99.90;;;;;;5075778;28;20024;-70
2021/10/31 16:03:17;;;;;;;3.38;0.95;;;18.00;99.90;;;;;;5091545;28;20020;-68
2021/10/31 16:05:42;;;;;;;1.42;0.80;;;18.00;99.90;;;;;;5089917;28;20391;-70
2021/10/31 16:08:09;;;;;;;2.35;0.95;;;18.00;99.90;;;;;;5090067;28;20031;-70
2021/10/31 16:10:36;;;;;;;2.20;0.80;;;18.00;99.90;;;;;;5089971;28;20384;-71
2021/10/31 16:13:03;;;;;;;2.17;0.90;;;18.00;99.90;;;;;;5090281;28;20056;-78
2021/10/31 16:15:29;;;;;;;2.20;1.00;;;18.00;99.90;;;;;;5089989;28;20107;-79
2021/10/31 16:17:55;;;;;;;3.35;0.85;;;18.00;99.90;;;;;;5089901;28;20556;-73
2021/10/31 16:20:22;;;;;;;3.25;0.90;;;18.00;99.90;;;;;;5090033;28;20055;-70
2021/10/31 16:22:49;;;;;;;2.70;1.00;;;18.00;99.90;;;;;;5089840;28;20036;-71
2021/10/31 16:25:17;;;;;;;2.72;1.02;;;18.00;99.90;;;;;;5090410;28;20016;-71
2021/10/31 16:27:42;;;;;;;4.47;1.00;;;18.00;99.90;;;;;;5089986;28;20024;-70
2021/10/31 16:30:09;;;;;;;2.95;0.80;;;18.00;99.90;;;;;;5090171;28;20020;-71
2021/10/31 16:32:35;;;;;;;2.15;1.02;;;18.00;99.90;;;;;;5089304;28;20046;-71
2021/10/31 16:35:04;;;;;;;4.72;1.40;;;18.00;99.90;;;;;;5090034;28;20080;-71
2021/10/31 16:37:30;;;;;;;1.75;0.80;;;18.00;99.90;;;;;;5089675;28;20093;-73
2021/10/31 16:39:56;;;;;;;2.20;0.77;;;18.00;99.90;;;;;;5089881;28;20031;-73
2021/10/31 16:42:27;;;;;;;2.55;0.90;;;18.00;99.90;;;;;;5089585;28;20012;-75
2021/10/31 16:44:53;;;;;;;3.85;1.05;;;17.90;99.90;;;;;;5089015;28;20020;-74
2021/10/31 16:47:21;;;;;;;3.20;1.00;;;18.00;99.90;;;;;;5089970;28;20027;-71
2021/10/31 16:49:48;;;;;;;3.72;1.00;;;17.90;99.90;;;;;;5089740;28;20487;-71
2021/10/31 16:52:14;;;;;;;2.80;1.10;;;18.00;99.90;;;;;;5089843;28;20019;-73
2021/10/31 16:54:40;;;;;;;2.60;0.95;;;17.90;99.90;;;;;;5088431;28;20408;-77
2021/10/31 16:57:08;;;;;;;3.13;1.00;;;18.00;99.90;;;;;;5089806;28;20081;-73
2021/10/31 16:59:34;;;;;;;2.85;0.90;;;17.90;99.90;;;;;;5089204;28;20484;-71
2021/10/31 17:02:00;;;;;;;2.72;1.08;;;17.90;99.90;;;;;;5088879;28;20035;-74
2021/10/31 17:04:25;;;;;;;3.88;1.02;;;17.90;99.90;;;;;;5089468;28;20069;-73
2021/10/31 17:06:51;;;;;;;2.95;0.98;;;17.90;99.90;;;;;;5090588;28;20221;-73
2021/10/31 17:09:17;;;;;;;2.53;0.82;;;17.90;99.90;;;;;;5089045;28;20032;-73
2021/10/31 17:11:43;;;;;;;3.10;1.00;;;17.90;99.90;;;;;;5090999;28;20402;-73
2021/10/31 17:14:08;;;;;;;3.30;1.13;;;17.90;99.90;;;;;;5076179;28;20033;-72
2021/10/31 17:16:37;;;;;;;2.47;1.10;;;17.90;99.90;;;;;;5088399;28;20036;-70
2021/10/31 17:19:05;;;;;;;4.18;1.10;;;17.90;99.90;;;;;;5090920;28;20023;-74
2021/10/31 17:21:32;;;;;;;3.55;1.20;;;17.90;99.90;;;;;;5088787;28;20028;-74
2021/10/31 17:23:58;;;;;;;2.70;1.08;;;17.90;99.90;;;;;;5079367;28;20039;-75
2021/10/31 17:26:24;;;;;;;3.97;1.20;;;17.90;99.90;;;;;;5087037;28;20024;-74
2021/10/31 17:28:51;;;;;;;3.67;1.10;;;17.80;99.90;;;;;;5088107;28;20051;-71
2021/10/31 17:31:16;;;;;;;6.32;1.00;;;17.80;99.90;;;;;;5089433;28;20027;-71
2021/10/31 17:33:43;;;;;;;3.95;1.10;;;17.80;99.90;;;;;;5089985;28;20031;-71
2021/10/31 17:36:09;;;;;;;5.28;1.20;;;17.90;99.90;;;;;;5085329;28;20024;-71
2021/10/31 17:38:35;;;;;;;4.70;1.50;;;17.80;99.90;;;;;;5089496;28;20036;-75
2021/10/31 17:41:01;;;;;;;3.28;0.80;;;17.80;99.90;;;;;;5090155;28;20016;-74
2021/10/31 17:43:26;;;;;;;3.40;1.20;;;17.80;99.90;;;;;;5090188;28;20031;-75
2021/10/31 17:45:52;;;;;;;4.40;1.15;;;17.80;99.90;;;;;;5092592;28;20019;-74
2021/10/31 17:48:18;;;;;;;3.90;1.42;;;17.80;99.90;;;;;;5093633;28;20050;-72
2021/10/31 17:50:43;;;;;;;3.58;0.90;;;17.80;99.90;;;;;;5094428;28;20123;-76
2021/10/31 17:53:09;;;;;;;2.53;0.90;;;17.80;99.90;;;;;;5092937;28;20024;-71
2021/10/31 17:55:39;;;;;;;3.97;1.25;;;17.80;99.90;;;;;;5093495;28;20020;-71
2021/10/31 17:58:05;;;;;;;3.30;1.35;;;17.80;99.90;;;;;;5091068;28;20066;-72
2021/10/31 18:00:33;;;;;;;5.95;1.20;;;17.80;99.90;;;;;;5093306;28;20056;-73
2021/10/31 18:03:00;;;;;;;4.05;1.05;;;17.80;99.90;;;;;;5091254;28;20022;-70
2021/10/31 18:05:28;;;;;;;4.35;1.30;;;17.80;99.90;;;;;;5091602;28;20032;-74
2021/10/31 18:07:54;;;;;;;3.17;1.08;;;17.80;99.90;;;;;;5093112;28;20077;-73
2021/10/31 18:10:21;;;;;;;4.20;1.10;;;17.70;99.90;;;;;;5093442;28;20028;-73
2021/10/31 18:12:48;;;;;;;4.97;1.33;;;17.70;99.90;;;;;;5093219;28;20629;-69
2021/10/31 18:15:15;;;;;;;10.63;1.55;;;17.70;99.90;;;;;;5094145;28;20107;-81
2021/10/31 18:17:43;;;;;;;2.60;0.90;;;17.70;99.90;;;;;;5093183;28;20026;-81
2021/10/31 18:20:17;;;;;;;4.75;1.27;;;17.70;99.90;;;;;;5093353;28;20028;-81
2021/10/31 18:22:47;;;;;;;4.90;1.25;;;17.70;99.90;;;;;;5093727;28;20028;-80
2021/10/31 18:25:13;;;;;;;5.43;1.52;;;17.70;99.90;;;;;;5094369;28;20024;-74
2021/10/31 18:27:40;;;;;;;3.05;1.00;;;17.70;99.90;;;;;;5092817;28;20107;-79
2021/10/31 18:30:07;;;;;;;4.65;1.10;;;17.70;99.90;;;;;;5093091;28;20039;-74
2021/10/31 18:32:33;;;;;;;3.13;0.95;;;17.70;99.90;;;;;;5092370;28;20028;-80
2021/10/31 18:34:59;;;;;;;5.57;1.52;;;17.70;99.90;;;;;;5090635;28;20073;-74
2021/10/31 18:37:28;;;;;;;6.15;1.80;;;17.70;99.90;;;;;;5085765;28;20024;-70
2021/10/31 18:39:54;;;;;;;3.90;1.10;;;17.70;99.90;;;;;;5091912;28;20035;-77
2021/10/31 18:42:21;;;;;;;4.18;1.15;;;17.70;99.90;;;;;;5092327;28;20426;-77
2021/10/31 18:44:47;;;;;;;2.78;1.08;;;17.70;99.90;;;;;;5093003;28;20028;-72
2021/10/31 18:47:13;;;;;;;4.30;1.42;;;17.70;99.90;;;;;;5093506;28;20035;-73
2021/10/31 18:49:39;;;;;;;3.10;1.13;;;17.70;99.90;;;;;;5091727;28;20089;-70
2021/10/31 18:52:06;;;;;;;5.30;1.45;;;17.70;99.90;;;;;;5092726;28;20044;-74
2021/10/31 18:54:33;;;;;;;3.95;1.23;;;17.70;99.90;;;;;;5091836;28;20043;-69
2021/10/31 18:56:59;;;;;;;4.35;1.45;;;17.60;99.90;;;;;;5092618;28;20066;-74
2021/10/31 18:59:25;;;;;;;4.50;1.25;;;17.70;99.90;;;;;;5092628;28;20051;-76
2021/10/31 19:01:51;;;;;;;3.22;1.50;;;17.70;99.90;;;;;;5091873;28;20121;-77
2021/10/31 19:04:19;;;;;;;6.40;1.23;;;17.70;99.90;;;;;;5076760;28;20034;-75
2021/10/31 19:06:45;;;;;;;5.60;1.50;;;17.70;99.90;;;;;;5089821;28;20024;-77
2021/10/31 19:09:12;;;;;;;5.13;1.30;;;17.70;99.90;;;;;;5088151;28;20048;-79
2021/10/31 19:11:37;;;;;;;5.78;1.67;;;17.70;99.90;;;;;;5092476;28;20020;-74
2021/10/31 19:14:04;;;;;;;4.50;1.17;;;17.70;99.90;;;;;;5087892;28;20133;-76
2021/10/31 19:16:31;;;;;;;4.20;1.00;;;17.70;99.90;;;;;;5092341;28;20506;-79
2021/10/31 19:18:57;;;;;;;4.40;1.25;;;17.60;99.90;;;;;;5088235;28;20039;-81
2021/10/31 19:21:25;;;;;;;5.13;1.17;;;17.60;99.90;;;;;;5086909;28;20475;-76
2021/10/31 19:23:51;;;;;;;5.35;1.63;;;17.60;99.90;;;;;;5092084;28;20111;-77
2021/10/31 19:26:17;;;;;;;4.85;1.88;;;17.60;99.90;;;;;;5092447;28;20417;-76
2021/10/31 19:28:43;;;;;;;4.60;1.52;;;17.60;99.90;;;;;;5090015;28;20032;-77
2021/10/31 19:31:18;;;;;;;4.70;1.23;;;17.60;99.90;;;;;;5078816;28;20463;-76
2021/10/31 19:33:44;;;;;;;7.05;1.60;;;17.60;99.90;;;;;;5081201;28;20111;-77
2021/10/31 19:36:11;;;;;;;4.70;1.35;;;17.60;99.90;;;;;;5089987;28;20080;-72
2021/10/31 19:38:37;;;;;;;3.95;1.10;;;17.60;99.90;;;;;;5092017;28;20020;-72
2021/10/31 19:41:10;;;;;;;5.10;1.27;;;17.60;99.90;;;;;;5086884;28;20024;-72
2021/10/31 19:43:38;;;;;;;4.18;1.40;;;17.60;99.90;;;;;;5082009;28;20035;-70
2021/10/31 19:46:06;;;;;;;6.47;1.60;;;17.60;99.90;;;;;;5077764;28;20143;-74
2021/10/31 19:48:32;;;;;;;4.70;1.40;;;17.60;99.90;;;;;;5088970;28;20032;-71
2021/10/31 19:50:58;;;;;;;4.20;1.25;;;17.60;99.90;;;;;;5092001;28;20020;-72
2021/10/31 19:53:25;;;;;;;7.40;1.67;;;17.50;99.90;;;;;;5090027;28;20480;-72
2021/10/31 19:55:56;;;;;;;7.40;1.52;;;17.50;99.90;;;;;;5090523;28;20773;-72
2021/10/31 19:58:22;;;;;;;5.10;1.30;;;17.50;99.90;;;;;;5088985;28;20498;-72
2021/10/31 20:00:48;;;;;;;7.15;1.33;;;17.50;99.90;;;;;;5090661;28;20024;-71
2021/10/31 20:03:14;;;;;;;5.57;1.70;;;17.50;99.90;;;;;;5091622;28;20028;-71
2021/10/31 20:05:40;;;;;;;5.47;1.48;;;17.50;99.90;;;;;;5091816;28;20019;-73
2021/10/31 20:08:07;;;;;;;3.72;1.20;;;17.50;99.90;;;;;;5090883;28;20078;-72
2021/10/31 20:10:34;;;;;;;4.65;1.20;;;17.50;99.90;;;;;;5092037;28;20484;-72
2021/10/31 20:12:59;;;;;;;5.30;1.80;;;17.50;99.90;;;;;;5091837;28;20054;-74
2021/10/31 20:15:25;;;;;;;5.95;1.73;;;17.50;99.90;;;;;;5088909;28;20024;-71
2021/10/31 20:17:51;;;;;;;6.07;1.50;;;17.50;99.90;;;;;;5091354;28;20028;-72
2021/10/31 20:20:17;;;;;;;3.83;1.35;;;17.50;99.90;;;;;;5090257;28;20031;-71
2021/10/31 20:22:43;;;;;;;3.42;1.30;;;17.50;99.90;;;;;;5090587;28;20024;-72
2021/10/31 20:25:09;;;;;;;3.88;1.25;;;17.50;99.90;;;;;;5091317;28;20031;-71
2021/10/31 20:27:34;;;;;;;5.15;1.23;;;17.50;99.90;;;;;;5091367;28;20028;-71
2021/10/31 20:30:00;;;;;;;5.30;1.25;;;17.50;99.90;;;;;;5088270;28;20028;-76
2021/10/31 20:32:26;;;;;;;4.15;1.40;;;17.50;99.90;;;;;;5091021;28;20077;-76
2021/10/31 20:34:51;;;;;;;5.40;1.42;;;17.50;99.90;;;;;;5091622;28;20051;-73
2021/10/31 20:37:17;;;;;;;5.13;1.20;;;17.50;99.90;;;;;;5091446;28;20031;-75
2021/10/31 20:39:43;;;;;;;5.22;1.40;;;17.50;99.90;;;;;;5090569;28;20574;-73
2021/10/31 20:42:11;;;;;;;5.05;1.52;;;17.50;99.90;;;;;;5091023;28;20057;-73
2021/10/31 20:44:37;;;;;;;4.47;1.50;;;17.50;99.90;;;;;;5091590;28;20036;-74
2021/10/31 20:47:04;;;;;;;3.65;1.20;;;17.40;99.90;;;;;;5091480;28;20529;-74
2021/10/31 20:49:30;;;;;;;4.80;1.42;;;17.40;99.90;;;;;;5091689;28;20028;-73
2021/10/31 20:51:56;;;;;;;5.18;1.33;;;17.40;99.90;;;;;;5092869;28;20119;-73
2021/10/31 20:54:25;;;;;;;6.30;1.63;;;17.40;99.90;;;;;;5090983;28;20031;-74
2021/10/31 20:56:52;;;;;;;5.40;1.33;;;17.40;99.90;;;;;;5091608;28;20024;-77
2021/10/31 20:59:26;;;;;;;3.78;1.27;;;17.40;99.90;;;;;;5091102;28;20514;-73
2021/10/31 21:01:52;;;;;;;;;;;17.40;99.90;;;;;;5089267;28;20039;-72
2021/10/31 21:04:17;;;;;;;4.55;1.30;;;17.40;99.90;;;;;;5089417;28;20284;-73
2021/10/31 21:06:44;;;;;;;5.78;1.42;;;17.40;99.90;;;;;;5091571;28;20020;-72
2021/10/31 21:09:10;;;;;;;4.43;1.48;;;17.40;99.90;;;;;;5090703;28;20036;-75
2021/10/31 21:11:36;;;;;;;4.93;1.60;;;17.40;99.90;;;;;;5090451;28;20028;-72
2021/10/31 21:14:04;;;;;;;4.43;1.30;;;17.40;99.90;;;;;;5090808;28;20036;-74
2021/10/31 21:16:30;;;;;;;5.80;1.30;;;17.40;99.90;;;;;;5089588;28;20024;-77
2021/10/31 21:18:56;;;;;;;6.90;1.63;;;17.40;99.90;;;;;;5090158;28;20098;-77
2021/10/31 21:21:24;;;;;;;3.80;1.15;;;17.40;99.90;;;;;;5094276;28;20028;-76
2021/10/31 21:23:52;;;;;;;5.97;1.30;;;17.50;99.90;;;;;;5094926;28;20032;-77
2021/10/31 21:26:23;;;;;;;5.85;1.50;;;17.40;99.90;;;;;;5094777;28;20028;-72
2021/10/31 21:28:48;;;;;;;4.65;1.17;;;17.50;99.90;;;;;;5094928;28;20032;-74
2021/10/31 21:31:14;;;;;;;5.32;1.33;;;17.50;99.90;;;;;;5095351;28;20387;-72
2021/10/31 21:33:40;;;;;;;3.60;1.30;;;17.50;99.90;;;;;;5094791;28;20091;-74
2021/10/31 21:36:06;;;;;;;5.93;1.38;;;17.50;99.90;;;;;;5093090;28;20066;-74
2021/10/31 21:38:32;;;;;;;3.55;1.23;;;17.50;99.90;;;;;;5094127;28;20028;-73
2021/10/31 21:41:03;;;;;;;3.63;1.15;;;17.50;99.90;;;;;;5094885;28;20107;-75
2021/10/31 21:43:30;;;;;;;4.93;1.48;;;17.50;99.90;;;;;;5094706;28;20031;-75
2021/10/31 21:45:55;;;;;;;2.67;1.13;;;17.50;99.90;;;;;;5094517;28;20071;-76
2021/10/31 21:48:21;;;;;;;3.97;1.35;;;17.50;99.90;;;;;;5094342;28;20035;-76
2021/10/31 21:50:47;;;;;;;5.07;1.15;;;17.50;99.90;;;;;;5094852;28;20182;-76
2021/10/31 21:53:13;;;;;;;3.67;1.23;;;17.50;99.90;;;;;;5094326;28;20043;-76
2021/10/31 21:55:39;;;;;;;3.72;1.35;;;17.50;99.90;;;;;;5092628;28;20031;-76
2021/10/31 21:58:05;;;;;;;3.85;1.08;;;17.50;99.90;;;;;;5094229;28;20110;-72
2021/10/31 22:00:31;;;;;;;3.20;1.00;;;17.50;99.90;;;;;;5093577;28;20421;-73
2021/10/31 22:02:57;;;;;;;7.18;1.10;;;17.60;99.90;;;;;;5093434;28;20028;-72
2021/10/31 22:05:23;;;;;;;7.07;1.52;;;17.60;99.90;;;;;;5092043;28;20408;-73
2021/10/31 22:07:49;;;;;;;3.80;1.08;;;17.60;99.90;;;;;;5093588;28;20754;-72
2021/10/31 22:10:15;;;;;;;6.55;1.48;;;17.60;99.90;;;;;;5094695;28;20032;-73
2021/10/31 22:12:40;;;;;;;5.20;1.25;;;17.60;99.90;;;;;;5093922;28;20476;-72
2021/10/31 22:15:07;;;;;;;5.00;1.52;;;17.60;99.90;;;;;;5094468;28;20110;-73
2021/10/31 22:17:33;;;;;;;4.10;1.20;;;17.60;99.90;;;;;;5093696;28;20031;-73
2021/10/31 22:19:59;;;;;;;3.50;1.33;;;17.70;99.90;;;;;;5092128;28;20028;-73
2021/10/31 22:22:25;;;;;;;3.22;1.30;;;17.70;99.90;;;;;;5091804;28;20028;-72
2021/10/31 22:24:51;;;;;;;3.88;1.30;;;17.60;99.90;;;;;;5092958;28;20024;-73
2021/10/31 22:27:16;;;;;;;3.75;1.17;;;17.70;99.90;;;;;;5093282;28;20020;-73
2021/10/31 22:29:42;;;;;;;3.70;1.00;;;17.70;99.90;;;;;;5094316;28;20036;-73
2021/10/31 22:32:08;;;;;;;5.55;1.38;;;17.70;99.90;;;;;;5093522;28;20028;-72
2021/10/31 22:34:34;;;;;;;4.10;1.30;;;17.60;99.90;;;;;;5092270;28;20027;-71
2021/10/31 22:36:59;;;;;;;5.03;1.15;;;17.70;99.90;;;;;;5092638;28;20073;-72
2021/10/31 22:39:27;;;;;;;5.63;1.38;;;17.70;99.90;;;;;;5092275;28;20428;-71
2021/10/31 22:41:53;;;;;;;4.93;1.40;;;17.70;99.90;;;;;;5092642;28;20047;-73
2021/10/31 22:44:19;;;;;;;3.10;1.40;;;17.60;99.90;;;;;;5090944;28;20494;-72
2021/10/31 22:46:45;;;;;;;5.68;1.50;;;17.60;99.90;;;;;;5092809;28;20024;-72
2021/10/31 22:49:11;;;;;;;7.22;1.27;;;17.60;99.90;;;;;;5094036;28;20024;-71
2021/10/31 22:51:37;;;;;;;10.93;1.30;;;17.60;99.90;;;;;;5093508;28;20024;-72
2021/10/31 22:54:03;;;;;;;9.18;1.33;;;17.60;99.90;;;;;;5090762;28;20491;-71
2021/10/31 22:56:29;;;;;;;3.38;1.13;;;17.60;99.90;;;;;;5092324;28;20088;-71
2021/10/31 22:58:55;;;;;;;11.68;1.50;;;17.60;99.90;;;;;;5093303;28;20107;-71
2021/10/31 23:01:23;;;;;;;6.18;1.38;;;17.60;99.90;;;;;;5093307;28;20484;-71
2021/10/31 23:03:50;;;;;;;6.85;1.10;;;17.60;99.90;;;;;;5093367;28;20028;-71
2021/10/31 23:06:24;;;;;;;4.53;1.35;;;17.60;99.90;;;;;;5093630;28;20020;-71
2021/10/31 23:08:52;;;;;;;4.30;1.25;;;17.60;99.90;;;;;;5093455;28;20044;-70
2021/10/31 23:11:18;;;;;;;5.13;1.00;;;17.50;99.90;;;;;;5093131;28;20012;-70
2021/10/31 23:13:47;;;;;;;6.30;1.25;;;17.50;99.90;;;;;;5093613;28;20027;-70
2021/10/31 23:16:13;;;;;;;3.25;0.90;;;17.50;99.90;;;;;;5093716;28;20023;-70
2021/10/31 23:18:41;;;;;;;6.43;1.20;;;17.50;99.90;;;;;;5093180;28;20031;-69
2021/10/31 23:21:09;;;;;;;5.65;1.02;;;17.50;99.90;;;;;;5093232;28;20016;-69
2021/10/31 23:23:34;;;;;;;4.47;0.93;;;17.40;99.90;;;;;;5092877;28;20141;-70
2021/10/31 23:26:00;;;;;;;4.60;1.10;;;17.50;99.90;;;;;;5093029;28;20045;-70
2021/10/31 23:28:27;;;;;;;3.28;1.05;;;17.40;99.90;;;;;;5092730;28;20094;-69
2021/10/31 23:30:53;;;;;;;4.60;1.15;;;17.40;99.90;;;;;;5092726;28;20059;-70
2021/10/31 23:33:20;;;;;;;2.95;1.00;;;17.40;99.90;;;;;;5092762;28;20445;-70
2021/10/31 23:35:47;;;;;;;4.00;1.33;;;17.40;99.90;;;;;;5092738;28;20032;-70
2021/10/31 23:38:13;;;;;;;6.35;1.40;;;17.40;99.90;;;;;;5093196;28;20036;-71
2021/10/31 23:40:41;;;;;;;2.65;1.00;;;17.40;99.90;;;;;;5092681;28;20032;-70
2021/10/31 23:43:08;;;;;;;3.50;1.00;;;17.30;99.90;;;;;;5091891;28;20027;-70
2021/10/31 23:45:34;;;;;;;3.92;1.08;;;17.30;99.90;;;;;;5092383;28;20020;-70
2021/10/31 23:48:00;;;;;;;4.97;1.13;;;17.30;99.90;;;;;;5092690;28;20369;-70
2021/10/31 23:50:26;;;;;;;4.38;1.10;;;17.30;99.90;;;;;;5092608;28;20039;-70
2021/10/31 23:52:52;;;;;;;2.65;1.10;;;17.30;99.90;;;;;;5092445;28;20024;-71
2021/10/31 23:55:19;;;;;;;5.07;1.02;;;17.30;99.90;;;;;;5092310;28;20117;-70
2021/10/31 23:57:45;;;;;;;2.42;0.95;;;17.30;99.90;;;;;;5092573;28;20062;-70
